sensor_id;sensor_type;location;lat;lon;timestamp;P1;durP1;ratioP1;P2;durP2;ratioP2
5805;SDS011;2929;50.810;8.342;2022-12-20T00:01:07;88.07;;;35.80;;
5805;SDS011;2929;50.810;8.342;2022-12-20T00:03:34;99.33;;;36.87;;
5805;SDS011;2929;50.810;8.342;2022-12-20T00:06:02;95.33;;;34.60;;
5805;SDS011;2929;50.810;8.342;2022-12-20T00:08:30;113.37;;;38.93;;
5805;SDS011;2929;50.810;8.342;2022-12-20T00:10:59;115.90;;;37.30;;
5805;SDS011;2929;50.810;8.342;2022-12-20T00:13:27;105.77;;;34.60;;
5805;SDS011;2929;50.810;8.342;2022-12-20T00:16:02;81.50;;;32.53;;
5805;SDS011;2929;50.810;8.342;2022-12-20T00:18:32;95.07;;;35.20;;
5805;SDS011;2929;50.810;8.342;2022-12-20T00:20:59;88.17;;;32.30;;
5805;SDS011;2929;50.810;8.342;2022-12-20T00:23:27;92.23;;;35.33;;
5805;SDS011;2929;50.810;8.342;2022-12-20T00:25:59;84.87;;;32.30;;
5805;SDS011;2929;50.810;8.342;2022-12-20T00:28:26;100.37;;;35.17;;
5805;SDS011;2929;50.810;8.342;2022-12-20T00:30:53;79.53;;;33.47;;
5805;SDS011;2929;50.810;8.342;2022-12-20T00:33:21;94.70;;;32.50;;
5805;SDS011;2929;50.810;8.342;2022-12-20T00:35:49;87.23;;;32.17;;
5805;SDS011;2929;50.810;8.342;2022-12-20T00:38:18;95.60;;;33.57;;
5805;SDS011;2929;50.810;8.342;2022-12-20T00:40:45;96.10;;;32.00;;
5805;SDS011;2929;50.810;8.342;2022-12-20T00:43:12;95.27;;;32.50;;
5805;SDS011;2929;50.810;8.342;2022-12-20T00:45:39;79.10;;;33.30;;
5805;SDS011;2929;50.810;8.342;2022-12-20T00:48:06;95.97;;;34.67;;
5805;SDS011;2929;50.810;8.342;2022-12-20T00:50:33;96.63;;;32.50;;
5805;SDS011;2929;50.810;8.342;2022-12-20T00:53:02;90.73;;;32.77;;
5805;SDS011;2929;50.810;8.342;2022-12-20T00:55:29;87.27;;;32.30;;
5805;SDS011;2929;50.810;8.342;2022-12-20T00:57:56;87.47;;;32.90;;
5805;SDS011;2929;50.810;8.342;2022-12-20T01:00:23;100.33;;;34.97;;
5805;SDS011;2929;50.810;8.342;2022-12-20T01:02:50;93.23;;;33.17;;
5805;SDS011;2929;50.810;8.342;2022-12-20T01:05:17;89.97;;;32.20;;
5805;SDS011;2929;50.810;8.342;2022-12-20T01:07:45;84.23;;;31.33;;
5805;SDS011;2929;50.810;8.342;2022-12-20T01:10:13;77.97;;;31.00;;
5805;SDS011;2929;50.810;8.342;2022-12-20T01:12:40;104.80;;;35.13;;
5805;SDS011;2929;50.810;8.342;2022-12-20T01:15:07;101.47;;;34.40;;
5805;SDS011;2929;50.810;8.342;2022-12-20T01:17:35;89.93;;;34.77;;
5805;SDS011;2929;50.810;8.342;2022-12-20T01:20:03;106.17;;;34.73;;
5805;SDS011;2929;50.810;8.342;2022-12-20T01:22:31;97.23;;;35.10;;
5805;SDS011;2929;50.810;8.342;2022-12-20T01:24:58;86.00;;;34.20;;
5805;SDS011;2929;50.810;8.342;2022-12-20T01:27:27;81.77;;;33.07;;
5805;SDS011;2929;50.810;8.342;2022-12-20T01:29:54;81.70;;;33.10;;
5805;SDS011;2929;50.810;8.342;2022-12-20T01:32:21;94.33;;;32.70;;
5805;SDS011;2929;50.810;8.342;2022-12-20T01:34:48;82.00;;;33.40;;
5805;SDS011;2929;50.810;8.342;2022-12-20T01:37:15;78.47;;;31.87;;
5805;SDS011;2929;50.810;8.342;2022-12-20T01:39:42;74.50;;;30.60;;
5805;SDS011;2929;50.810;8.342;2022-12-20T01:42:10;83.30;;;33.60;;
5805;SDS011;2929;50.810;8.342;2022-12-20T01:44:57;80.63;;;31.70;;
5805;SDS011;2929;50.810;8.342;2022-12-20T01:47:25;102.77;;;32.73;;
5805;SDS011;2929;50.810;8.342;2022-12-20T01:49:58;103.77;;;34.07;;
5805;SDS011;2929;50.810;8.342;2022-12-20T01:52:29;98.83;;;33.50;;
5805;SDS011;2929;50.810;8.342;2022-12-20T01:55:02;84.47;;;32.70;;
5805;SDS011;2929;50.810;8.342;2022-12-20T01:57:33;87.63;;;33.70;;
5805;SDS011;2929;50.810;8.342;2022-12-20T02:00:07;97.53;;;35.47;;
5805;SDS011;2929;50.810;8.342;2022-12-20T02:02:41;86.93;;;36.73;;
5805;SDS011;2929;50.810;8.342;2022-12-20T02:05:10;80.37;;;32.60;;
5805;SDS011;2929;50.810;8.342;2022-12-20T02:07:39;95.30;;;33.90;;
5805;SDS011;2929;50.810;8.342;2022-12-20T02:10:08;88.37;;;33.77;;
5805;SDS011;2929;50.810;8.342;2022-12-20T02:12:37;93.60;;;32.07;;
5805;SDS011;2929;50.810;8.342;2022-12-20T02:15:12;97.97;;;36.47;;
5805;SDS011;2929;50.810;8.342;2022-12-20T02:17:49;82.77;;;32.47;;
5805;SDS011;2929;50.810;8.342;2022-12-20T02:23:46;72.70;;;30.27;;
5805;SDS011;2929;50.810;8.342;2022-12-20T02:26:40;76.80;;;30.57;;
5805;SDS011;2929;50.810;8.342;2022-12-20T02:29:34;68.93;;;28.30;;
5805;SDS011;2929;50.810;8.342;2022-12-20T02:32:06;80.73;;;30.70;;
5805;SDS011;2929;50.810;8.342;2022-12-20T02:34:38;85.50;;;30.13;;
5805;SDS011;2929;50.810;8.342;2022-12-20T02:37:07;81.13;;;31.00;;
5805;SDS011;2929;50.810;8.342;2022-12-20T02:39:35;80.17;;;30.27;;
5805;SDS011;2929;50.810;8.342;2022-12-20T02:42:05;82.53;;;31.17;;
5805;SDS011;2929;50.810;8.342;2022-12-20T02:44:35;86.83;;;30.10;;
5805;SDS011;2929;50.810;8.342;2022-12-20T02:47:25;80.33;;;30.90;;
5805;SDS011;2929;50.810;8.342;2022-12-20T02:49:56;79.63;;;29.07;;
5805;SDS011;2929;50.810;8.342;2022-12-20T02:52:23;92.30;;;30.07;;
5805;SDS011;2929;50.810;8.342;2022-12-20T02:54:55;71.03;;;30.70;;
5805;SDS011;2929;50.810;8.342;2022-12-20T02:57:27;70.63;;;28.97;;
5805;SDS011;2929;50.810;8.342;2022-12-20T03:00:04;88.87;;;32.70;;
5805;SDS011;2929;50.810;8.342;2022-12-20T03:02:35;83.80;;;32.70;;
5805;SDS011;2929;50.810;8.342;2022-12-20T03:05:16;92.07;;;31.93;;
5805;SDS011;2929;50.810;8.342;2022-12-20T03:07:47;81.67;;;31.30;;
5805;SDS011;2929;50.810;8.342;2022-12-20T03:10:14;75.37;;;30.60;;
5805;SDS011;2929;50.810;8.342;2022-12-20T03:12:41;91.30;;;33.00;;
5805;SDS011;2929;50.810;8.342;2022-12-20T03:15:08;91.60;;;31.70;;
5805;SDS011;2929;50.810;8.342;2022-12-20T03:17:37;98.23;;;33.47;;
5805;SDS011;2929;50.810;8.342;2022-12-20T03:20:05;101.23;;;34.50;;
5805;SDS011;2929;50.810;8.342;2022-12-20T03:22:35;93.10;;;31.97;;
5805;SDS011;2929;50.810;8.342;2022-12-20T03:25:03;81.17;;;29.30;;
5805;SDS011;2929;50.810;8.342;2022-12-20T03:27:32;81.30;;;30.80;;
5805;SDS011;2929;50.810;8.342;2022-12-20T03:30:01;76.63;;;29.97;;
5805;SDS011;2929;50.810;8.342;2022-12-20T03:32:32;75.97;;;28.60;;
5805;SDS011;2929;50.810;8.342;2022-12-20T03:35:01;82.50;;;29.87;;
5805;SDS011;2929;50.810;8.342;2022-12-20T03:37:34;89.10;;;30.13;;
5805;SDS011;2929;50.810;8.342;2022-12-20T03:40:03;85.43;;;30.93;;
5805;SDS011;2929;50.810;8.342;2022-12-20T03:42:31;83.30;;;30.87;;
5805;SDS011;2929;50.810;8.342;2022-12-20T03:44:59;83.70;;;30.73;;
5805;SDS011;2929;50.810;8.342;2022-12-20T03:47:28;84.57;;;30.47;;
5805;SDS011;2929;50.810;8.342;2022-12-20T03:49:55;69.17;;;29.43;;
5805;SDS011;2929;50.810;8.342;2022-12-20T03:52:24;81.50;;;31.20;;
5805;SDS011;2929;50.810;8.342;2022-12-20T03:58:40;74.87;;;28.07;;
5805;SDS011;2929;50.810;8.342;2022-12-20T04:01:17;86.50;;;31.37;;
5805;SDS011;2929;50.810;8.342;2022-12-20T04:03:46;83.23;;;30.40;;
5805;SDS011;2929;50.810;8.342;2022-12-20T04:06:13;95.97;;;32.60;;
5805;SDS011;2929;50.810;8.342;2022-12-20T04:08:42;92.33;;;29.57;;
5805;SDS011;2929;50.810;8.342;2022-12-20T04:11:14;86.37;;;30.60;;
5805;SDS011;2929;50.810;8.342;2022-12-20T04:13:47;78.97;;;30.70;;
5805;SDS011;2929;50.810;8.342;2022-12-20T04:16:16;88.53;;;31.33;;
5805;SDS011;2929;50.810;8.342;2022-12-20T04:18:44;86.37;;;29.70;;
5805;SDS011;2929;50.810;8.342;2022-12-20T04:21:12;88.03;;;31.83;;
5805;SDS011;2929;50.810;8.342;2022-12-20T04:23:46;101.47;;;30.67;;
5805;SDS011;2929;50.810;8.342;2022-12-20T04:26:14;84.23;;;31.93;;
5805;SDS011;2929;50.810;8.342;2022-12-20T04:28:42;66.63;;;28.80;;
5805;SDS011;2929;50.810;8.342;2022-12-20T04:31:11;81.20;;;29.03;;
5805;SDS011;2929;50.810;8.342;2022-12-20T04:33:38;76.50;;;27.90;;
5805;SDS011;2929;50.810;8.342;2022-12-20T04:36:06;77.53;;;29.70;;
5805;SDS011;2929;50.810;8.342;2022-12-20T04:38:36;72.50;;;30.83;;
5805;SDS011;2929;50.810;8.342;2022-12-20T04:41:05;83.10;;;29.83;;
5805;SDS011;2929;50.810;8.342;2022-12-20T04:43:43;73.80;;;30.27;;
5805;SDS011;2929;50.810;8.342;2022-12-20T04:46:10;77.07;;;27.90;;
5805;SDS011;2929;50.810;8.342;2022-12-20T04:48:37;72.07;;;29.20;;
5805;SDS011;2929;50.810;8.342;2022-12-20T04:51:05;70.20;;;28.00;;
5805;SDS011;2929;50.810;8.342;2022-12-20T04:53:32;81.70;;;29.47;;
5805;SDS011;2929;50.810;8.342;2022-12-20T04:56:33;69.73;;;27.60;;
5805;SDS011;2929;50.810;8.342;2022-12-20T04:59:07;79.20;;;29.63;;
5805;SDS011;2929;50.810;8.342;2022-12-20T05:01:36;87.67;;;30.90;;
5805;SDS011;2929;50.810;8.342;2022-12-20T05:04:03;87.10;;;29.67;;
5805;SDS011;2929;50.810;8.342;2022-12-20T05:06:34;88.20;;;31.00;;
5805;SDS011;2929;50.810;8.342;2022-12-20T05:09:01;84.93;;;29.03;;
5805;SDS011;2929;50.810;8.342;2022-12-20T05:11:29;85.87;;;30.60;;
5805;SDS011;2929;50.810;8.342;2022-12-20T05:13:57;85.23;;;30.80;;
5805;SDS011;2929;50.810;8.342;2022-12-20T05:16:24;81.40;;;31.30;;
5805;SDS011;2929;50.810;8.342;2022-12-20T05:18:52;86.80;;;32.20;;
5805;SDS011;2929;50.810;8.342;2022-12-20T05:21:19;85.23;;;30.63;;
5805;SDS011;2929;50.810;8.342;2022-12-20T05:24:05;89.30;;;29.53;;
5805;SDS011;2929;50.810;8.342;2022-12-20T05:27:19;88.63;;;31.90;;
5805;SDS011;2929;50.810;8.342;2022-12-20T05:29:48;86.20;;;30.90;;
5805;SDS011;2929;50.810;8.342;2022-12-20T05:32:15;117.97;;;31.80;;
5805;SDS011;2929;50.810;8.342;2022-12-20T05:34:43;95.53;;;33.70;;
5805;SDS011;2929;50.810;8.342;2022-12-20T05:37:10;98.27;;;31.90;;
5805;SDS011;2929;50.810;8.342;2022-12-20T05:39:39;87.93;;;30.53;;
5805;SDS011;2929;50.810;8.342;2022-12-20T05:42:12;82.73;;;28.90;;
5805;SDS011;2929;50.810;8.342;2022-12-20T05:44:40;84.30;;;32.40;;
5805;SDS011;2929;50.810;8.342;2022-12-20T05:47:08;80.40;;;29.93;;
5805;SDS011;2929;50.810;8.342;2022-12-20T05:49:36;77.03;;;30.50;;
5805;SDS011;2929;50.810;8.342;2022-12-20T05:52:07;81.13;;;30.93;;
5805;SDS011;2929;50.810;8.342;2022-12-20T05:54:36;75.37;;;27.70;;
5805;SDS011;2929;50.810;8.342;2022-12-20T05:57:13;73.50;;;29.03;;
5805;SDS011;2929;50.810;8.342;2022-12-20T05:59:41;79.33;;;30.13;;
5805;SDS011;2929;50.810;8.342;2022-12-20T06:02:15;67.83;;;26.90;;
5805;SDS011;2929;50.810;8.342;2022-12-20T06:04:45;76.77;;;30.07;;
5805;SDS011;2929;50.810;8.342;2022-12-20T06:07:18;73.17;;;28.77;;
5805;SDS011;2929;50.810;8.342;2022-12-20T06:09:48;71.03;;;30.03;;
5805;SDS011;2929;50.810;8.342;2022-12-20T06:12:18;71.87;;;28.23;;
5805;SDS011;2929;50.810;8.342;2022-12-20T06:14:46;59.83;;;27.37;;
5805;SDS011;2929;50.810;8.342;2022-12-20T06:17:13;69.47;;;28.03;;
5805;SDS011;2929;50.810;8.342;2022-12-20T06:19:42;70.60;;;28.77;;
5805;SDS011;2929;50.810;8.342;2022-12-20T06:22:13;68.00;;;28.13;;
5805;SDS011;2929;50.810;8.342;2022-12-20T06:24:50;76.90;;;30.07;;
5805;SDS011;2929;50.810;8.342;2022-12-20T06:27:22;78.00;;;27.83;;
5805;SDS011;2929;50.810;8.342;2022-12-20T06:30:07;69.27;;;28.77;;
5805;SDS011;2929;50.810;8.342;2022-12-20T06:32:59;76.23;;;28.43;;
5805;SDS011;2929;50.810;8.342;2022-12-20T06:35:26;72.97;;;30.00;;
5805;SDS011;2929;50.810;8.342;2022-12-20T06:37:55;73.50;;;29.73;;
5805;SDS011;2929;50.810;8.342;2022-12-20T06:40:27;66.80;;;27.63;;
5805;SDS011;2929;50.810;8.342;2022-12-20T06:42:57;76.00;;;31.10;;
5805;SDS011;2929;50.810;8.342;2022-12-20T06:45:24;82.03;;;30.70;;
5805;SDS011;2929;50.810;8.342;2022-12-20T06:47:52;70.80;;;30.60;;
5805;SDS011;2929;50.810;8.342;2022-12-20T06:50:22;89.50;;;29.20;;
5805;SDS011;2929;50.810;8.342;2022-12-20T06:52:49;87.93;;;30.40;;
5805;SDS011;2929;50.810;8.342;2022-12-20T06:55:16;74.77;;;28.77;;
5805;SDS011;2929;50.810;8.342;2022-12-20T06:57:44;98.70;;;29.60;;
5805;SDS011;2929;50.810;8.342;2022-12-20T07:00:13;71.33;;;29.37;;
5805;SDS011;2929;50.810;8.342;2022-12-20T07:02:41;109.70;;;30.87;;
5805;SDS011;2929;50.810;8.342;2022-12-20T07:05:09;96.43;;;32.07;;
5805;SDS011;2929;50.810;8.342;2022-12-20T07:07:38;92.20;;;31.70;;
5805;SDS011;2929;50.810;8.342;2022-12-20T07:10:06;99.77;;;30.10;;
5805;SDS011;2929;50.810;8.342;2022-12-20T07:12:34;89.30;;;30.63;;
5805;SDS011;2929;50.810;8.342;2022-12-20T07:15:01;82.00;;;30.23;;
5805;SDS011;2929;50.810;8.342;2022-12-20T07:17:28;99.50;;;30.80;;
5805;SDS011;2929;50.810;8.342;2022-12-20T07:19:55;94.40;;;33.07;;
5805;SDS011;2929;50.810;8.342;2022-12-20T07:22:22;113.63;;;36.90;;
5805;SDS011;2929;50.810;8.342;2022-12-20T07:24:51;112.73;;;37.23;;
5805;SDS011;2929;50.810;8.342;2022-12-20T07:27:18;104.40;;;37.33;;
5805;SDS011;2929;50.810;8.342;2022-12-20T07:29:45;106.13;;;38.60;;
5805;SDS011;2929;50.810;8.342;2022-12-20T07:32:12;101.27;;;37.70;;
5805;SDS011;2929;50.810;8.342;2022-12-20T07:34:39;98.97;;;36.40;;
5805;SDS011;2929;50.810;8.342;2022-12-20T07:37:07;110.23;;;38.57;;
5805;SDS011;2929;50.810;8.342;2022-12-20T07:39:34;101.13;;;37.83;;
5805;SDS011;2929;50.810;8.342;2022-12-20T07:42:02;118.07;;;36.17;;
5805;SDS011;2929;50.810;8.342;2022-12-20T07:44:40;97.60;;;36.03;;
5805;SDS011;2929;50.810;8.342;2022-12-20T07:47:07;89.37;;;35.53;;
5805;SDS011;2929;50.810;8.342;2022-12-20T07:49:34;93.50;;;36.73;;
5805;SDS011;2929;50.810;8.342;2022-12-20T07:52:01;104.37;;;36.57;;
5805;SDS011;2929;50.810;8.342;2022-12-20T07:54:31;81.63;;;33.93;;
5805;SDS011;2929;50.810;8.342;2022-12-20T07:57:03;92.50;;;36.00;;
5805;SDS011;2929;50.810;8.342;2022-12-20T07:59:36;123.80;;;39.90;;
5805;SDS011;2929;50.810;8.342;2022-12-20T08:02:05;102.17;;;37.50;;
5805;SDS011;2929;50.810;8.342;2022-12-20T08:04:36;103.87;;;35.97;;
5805;SDS011;2929;50.810;8.342;2022-12-20T08:07:05;98.87;;;35.00;;
5805;SDS011;2929;50.810;8.342;2022-12-20T08:09:34;99.23;;;35.80;;
5805;SDS011;2929;50.810;8.342;2022-12-20T08:12:05;92.47;;;39.83;;
5805;SDS011;2929;50.810;8.342;2022-12-20T08:14:34;109.50;;;39.67;;
5805;SDS011;2929;50.810;8.342;2022-12-20T08:17:02;135.13;;;50.47;;
5805;SDS011;2929;50.810;8.342;2022-12-20T08:19:29;111.17;;;43.80;;
5805;SDS011;2929;50.810;8.342;2022-12-20T08:21:56;115.90;;;44.50;;
5805;SDS011;2929;50.810;8.342;2022-12-20T08:24:23;108.47;;;42.03;;
5805;SDS011;2929;50.810;8.342;2022-12-20T08:26:50;118.83;;;43.00;;
5805;SDS011;2929;50.810;8.342;2022-12-20T08:29:19;112.30;;;42.67;;
5805;SDS011;2929;50.810;8.342;2022-12-20T08:31:46;110.57;;;41.40;;
5805;SDS011;2929;50.810;8.342;2022-12-20T08:34:13;104.90;;;39.13;;
5805;SDS011;2929;50.810;8.342;2022-12-20T08:36:40;109.80;;;39.03;;
5805;SDS011;2929;50.810;8.342;2022-12-20T08:39:07;105.07;;;38.93;;
5805;SDS011;2929;50.810;8.342;2022-12-20T08:41:35;114.00;;;40.53;;
5805;SDS011;2929;50.810;8.342;2022-12-20T08:44:03;101.83;;;38.40;;
5805;SDS011;2929;50.810;8.342;2022-12-20T08:46:31;126.77;;;37.00;;
5805;SDS011;2929;50.810;8.342;2022-12-20T08:48:59;98.27;;;36.87;;
5805;SDS011;2929;50.810;8.342;2022-12-20T08:51:26;101.30;;;37.00;;
5805;SDS011;2929;50.810;8.342;2022-12-20T08:53:53;97.70;;;36.00;;
5805;SDS011;2929;50.810;8.342;2022-12-20T08:56:20;103.77;;;36.37;;
5805;SDS011;2929;50.810;8.342;2022-12-20T08:58:47;94.00;;;35.37;;
5805;SDS011;2929;50.810;8.342;2022-12-20T09:01:15;95.27;;;35.40;;
5805;SDS011;2929;50.810;8.342;2022-12-20T09:03:45;100.57;;;33.90;;
5805;SDS011;2929;50.810;8.342;2022-12-20T09:06:13;93.67;;;36.53;;
5805;SDS011;2929;50.810;8.342;2022-12-20T09:08:42;107.50;;;39.10;;
5805;SDS011;2929;50.810;8.342;2022-12-20T09:11:10;103.33;;;38.90;;
5805;SDS011;2929;50.810;8.342;2022-12-20T09:13:39;105.03;;;39.87;;
5805;SDS011;2929;50.810;8.342;2022-12-20T09:16:08;98.10;;;37.50;;
5805;SDS011;2929;50.810;8.342;2022-12-20T09:18:36;107.57;;;37.33;;
5805;SDS011;2929;50.810;8.342;2022-12-20T09:21:05;101.70;;;36.47;;
5805;SDS011;2929;50.810;8.342;2022-12-20T09:23:33;95.83;;;32.77;;
5805;SDS011;2929;50.810;8.342;2022-12-20T09:26:01;82.80;;;33.67;;
5805;SDS011;2929;50.810;8.342;2022-12-20T09:28:30;88.30;;;32.87;;
5805;SDS011;2929;50.810;8.342;2022-12-20T09:30:57;82.03;;;33.23;;
5805;SDS011;2929;50.810;8.342;2022-12-20T09:33:24;99.90;;;34.13;;
5805;SDS011;2929;50.810;8.342;2022-12-20T09:35:52;95.90;;;34.80;;
5805;SDS011;2929;50.810;8.342;2022-12-20T09:38:21;86.67;;;34.50;;
5805;SDS011;2929;50.810;8.342;2022-12-20T09:40:49;93.77;;;34.07;;
5805;SDS011;2929;50.810;8.342;2022-12-20T09:43:18;116.60;;;41.90;;
5805;SDS011;2929;50.810;8.342;2022-12-20T09:45:47;113.03;;;42.87;;
5805;SDS011;2929;50.810;8.342;2022-12-20T09:48:19;108.03;;;41.40;;
5805;SDS011;2929;50.810;8.342;2022-12-20T09:50:52;92.97;;;36.77;;
5805;SDS011;2929;50.810;8.342;2022-12-20T09:53:33;106.23;;;40.67;;
5805;SDS011;2929;50.810;8.342;2022-12-20T09:56:12;97.80;;;40.17;;
5805;SDS011;2929;50.810;8.342;2022-12-20T09:58:53;111.47;;;44.20;;
5805;SDS011;2929;50.810;8.342;2022-12-20T10:01:24;84.40;;;38.20;;
5805;SDS011;2929;50.810;8.342;2022-12-20T10:03:53;94.87;;;37.70;;
5805;SDS011;2929;50.810;8.342;2022-12-20T10:06:24;99.97;;;38.03;;
5805;SDS011;2929;50.810;8.342;2022-12-20T10:09:01;103.93;;;39.23;;
5805;SDS011;2929;50.810;8.342;2022-12-20T10:14:32;105.20;;;38.47;;
5805;SDS011;2929;50.810;8.342;2022-12-20T10:17:16;115.30;;;39.00;;
5805;SDS011;2929;50.810;8.342;2022-12-20T10:20:01;90.67;;;36.90;;
5805;SDS011;2929;50.810;8.342;2022-12-20T10:22:36;106.80;;;39.30;;
5805;SDS011;2929;50.810;8.342;2022-12-20T10:25:15;96.40;;;37.37;;
5805;SDS011;2929;50.810;8.342;2022-12-20T10:27:44;103.57;;;39.63;;
5805;SDS011;2929;50.810;8.342;2022-12-20T10:30:13;105.47;;;40.37;;
5805;SDS011;2929;50.810;8.342;2022-12-20T10:32:42;104.10;;;40.00;;
5805;SDS011;2929;50.810;8.342;2022-12-20T10:35:15;98.90;;;40.23;;
5805;SDS011;2929;50.810;8.342;2022-12-20T10:37:58;98.17;;;37.97;;
5805;SDS011;2929;50.810;8.342;2022-12-20T10:40:28;98.07;;;36.00;;
5805;SDS011;2929;50.810;8.342;2022-12-20T10:42:57;95.20;;;36.93;;
5805;SDS011;2929;50.810;8.342;2022-12-20T10:45:32;96.00;;;37.50;;
5805;SDS011;2929;50.810;8.342;2022-12-20T10:48:02;81.70;;;35.47;;
5805;SDS011;2929;50.810;8.342;2022-12-20T10:50:31;78.60;;;34.90;;
5805;SDS011;2929;50.810;8.342;2022-12-20T10:53:19;98.60;;;37.37;;
5805;SDS011;2929;50.810;8.342;2022-12-20T10:55:50;92.67;;;37.97;;
5805;SDS011;2929;50.810;8.342;2022-12-20T10:58:20;89.47;;;35.50;;
5805;SDS011;2929;50.810;8.342;2022-12-20T11:01:02;90.33;;;37.03;;
5805;SDS011;2929;50.810;8.342;2022-12-20T11:03:32;83.00;;;34.50;;
5805;SDS011;2929;50.810;8.342;2022-12-20T11:06:01;83.20;;;35.57;;
5805;SDS011;2929;50.810;8.342;2022-12-20T11:08:29;87.50;;;36.07;;
5805;SDS011;2929;50.810;8.342;2022-12-20T11:11:12;86.23;;;37.30;;
5805;SDS011;2929;50.810;8.342;2022-12-20T11:13:41;102.80;;;38.30;;
5805;SDS011;2929;50.810;8.342;2022-12-20T11:16:23;120.03;;;48.40;;
5805;SDS011;2929;50.810;8.342;2022-12-20T11:19:02;119.77;;;47.80;;
5805;SDS011;2929;50.810;8.342;2022-12-20T11:21:51;109.07;;;44.27;;
5805;SDS011;2929;50.810;8.342;2022-12-20T11:24:26;92.67;;;38.57;;
5805;SDS011;2929;50.810;8.342;2022-12-20T11:27:05;101.00;;;40.30;;
5805;SDS011;2929;50.810;8.342;2022-12-20T11:29:53;99.43;;;38.80;;
5805;SDS011;2929;50.810;8.342;2022-12-20T11:32:32;100.63;;;41.00;;
5805;SDS011;2929;50.810;8.342;2022-12-20T11:35:10;109.10;;;46.73;;
5805;SDS011;2929;50.810;8.342;2022-12-20T11:37:45;107.90;;;40.70;;
5805;SDS011;2929;50.810;8.342;2022-12-20T11:40:22;102.83;;;39.20;;
5805;SDS011;2929;50.810;8.342;2022-12-20T11:42:58;98.63;;;39.60;;
5805;SDS011;2929;50.810;8.342;2022-12-20T11:45:34;95.70;;;38.50;;
5805;SDS011;2929;50.810;8.342;2022-12-20T11:51:07;114.10;;;43.60;;
5805;SDS011;2929;50.810;8.342;2022-12-20T11:53:41;98.97;;;42.30;;
5805;SDS011;2929;50.810;8.342;2022-12-20T11:56:15;112.57;;;43.87;;
5805;SDS011;2929;50.810;8.342;2022-12-20T11:58:47;101.77;;;40.93;;
5805;SDS011;2929;50.810;8.342;2022-12-20T12:01:17;96.10;;;43.37;;
5805;SDS011;2929;50.810;8.342;2022-12-20T12:03:52;99.10;;;42.00;;
5805;SDS011;2929;50.810;8.342;2022-12-20T12:06:29;114.97;;;45.00;;
5805;SDS011;2929;50.810;8.342;2022-12-20T12:09:04;92.70;;;41.00;;
5805;SDS011;2929;50.810;8.342;2022-12-20T12:11:36;107.30;;;43.87;;
5805;SDS011;2929;50.810;8.342;2022-12-20T12:14:08;100.37;;;44.27;;
5805;SDS011;2929;50.810;8.342;2022-12-20T12:16:44;102.63;;;42.47;;
5805;SDS011;2929;50.810;8.342;2022-12-20T12:19:17;107.07;;;41.63;;
5805;SDS011;2929;50.810;8.342;2022-12-20T12:21:45;100.93;;;44.30;;
5805;SDS011;2929;50.810;8.342;2022-12-20T12:24:17;113.00;;;44.53;;
5805;SDS011;2929;50.810;8.342;2022-12-20T12:26:48;102.43;;;42.40;;
5805;SDS011;2929;50.810;8.342;2022-12-20T12:29:17;96.17;;;40.80;;
5805;SDS011;2929;50.810;8.342;2022-12-20T12:31:47;97.33;;;43.57;;
5805;SDS011;2929;50.810;8.342;2022-12-20T12:34:24;108.07;;;44.37;;
5805;SDS011;2929;50.810;8.342;2022-12-20T12:37:10;90.30;;;40.27;;
5805;SDS011;2929;50.810;8.342;2022-12-20T12:40:02;92.60;;;42.40;;
5805;SDS011;2929;50.810;8.342;2022-12-20T12:45:45;97.73;;;40.57;;
5805;SDS011;2929;50.810;8.342;2022-12-20T12:48:14;100.63;;;39.60;;
5805;SDS011;2929;50.810;8.342;2022-12-20T12:50:47;93.53;;;40.80;;
5805;SDS011;2929;50.810;8.342;2022-12-20T12:53:18;99.43;;;41.07;;
5805;SDS011;2929;50.810;8.342;2022-12-20T12:55:48;97.57;;;41.30;;
5805;SDS011;2929;50.810;8.342;2022-12-20T13:01:09;102.80;;;42.70;;
5805;SDS011;2929;50.810;8.342;2022-12-20T13:03:39;110.87;;;43.13;;
5805;SDS011;2929;50.810;8.342;2022-12-20T13:18:20;101.53;;;38.40;;
5805;SDS011;2929;50.810;8.342;2022-12-20T13:27:02;104.47;;;40.20;;
5805;SDS011;2929;50.810;8.342;2022-12-20T13:29:50;108.17;;;38.67;;
5805;SDS011;2929;50.810;8.342;2022-12-20T13:32:57;95.90;;;40.27;;
5805;SDS011;2929;50.810;8.342;2022-12-20T13:35:53;105.90;;;43.57;;
5805;SDS011;2929;50.810;8.342;2022-12-20T13:38:38;102.93;;;42.10;;
5805;SDS011;2929;50.810;8.342;2022-12-20T13:49:58;115.37;;;45.50;;
5805;SDS011;2929;50.810;8.342;2022-12-20T13:52:28;107.63;;;44.80;;
5805;SDS011;2929;50.810;8.342;2022-12-20T13:54:57;119.40;;;51.60;;
5805;SDS011;2929;50.810;8.342;2022-12-20T13:57:27;130.93;;;51.50;;
5805;SDS011;2929;50.810;8.342;2022-12-20T13:59:58;126.03;;;49.90;;
5805;SDS011;2929;50.810;8.342;2022-12-20T14:02:32;113.60;;;44.10;;
5805;SDS011;2929;50.810;8.342;2022-12-20T14:05:02;103.70;;;44.90;;
5805;SDS011;2929;50.810;8.342;2022-12-20T14:07:34;380.73;;;148.40;;
5805;SDS011;2929;50.810;8.342;2022-12-20T14:10:03;192.13;;;80.33;;
5805;SDS011;2929;50.810;8.342;2022-12-20T14:12:43;152.17;;;59.57;;
5805;SDS011;2929;50.810;8.342;2022-12-20T14:15:19;131.50;;;53.90;;
5805;SDS011;2929;50.810;8.342;2022-12-20T14:17:48;118.17;;;53.97;;
5805;SDS011;2929;50.810;8.342;2022-12-20T14:20:15;113.73;;;47.37;;
5805;SDS011;2929;50.810;8.342;2022-12-20T14:22:53;113.50;;;44.43;;
5805;SDS011;2929;50.810;8.342;2022-12-20T14:25:27;106.47;;;45.80;;
5805;SDS011;2929;50.810;8.342;2022-12-20T14:27:57;112.07;;;45.80;;
5805;SDS011;2929;50.810;8.342;2022-12-20T14:30:29;100.03;;;44.60;;
5805;SDS011;2929;50.810;8.342;2022-12-20T14:32:58;102.40;;;43.20;;
5805;SDS011;2929;50.810;8.342;2022-12-20T14:35:25;117.43;;;42.17;;
5805;SDS011;2929;50.810;8.342;2022-12-20T14:37:55;90.53;;;40.50;;
5805;SDS011;2929;50.810;8.342;2022-12-20T14:40:25;104.17;;;45.83;;
5805;SDS011;2929;50.810;8.342;2022-12-20T14:42:52;111.17;;;43.40;;
5805;SDS011;2929;50.810;8.342;2022-12-20T14:45:21;98.00;;;40.03;;
5805;SDS011;2929;50.810;8.342;2022-12-20T14:47:55;112.00;;;40.70;;
5805;SDS011;2929;50.810;8.342;2022-12-20T14:50:28;91.33;;;38.80;;
5805;SDS011;2929;50.810;8.342;2022-12-20T14:52:58;108.13;;;43.00;;
5805;SDS011;2929;50.810;8.342;2022-12-20T14:55:36;96.60;;;39.37;;
5805;SDS011;2929;50.810;8.342;2022-12-20T14:58:21;100.37;;;40.23;;
5805;SDS011;2929;50.810;8.342;2022-12-20T15:00:55;111.33;;;38.20;;
5805;SDS011;2929;50.810;8.342;2022-12-20T15:03:24;91.40;;;38.27;;
5805;SDS011;2929;50.810;8.342;2022-12-20T15:05:52;103.40;;;39.50;;
5805;SDS011;2929;50.810;8.342;2022-12-20T15:08:22;93.97;;;37.23;;
5805;SDS011;2929;50.810;8.342;2022-12-20T15:10:54;107.30;;;40.60;;
5805;SDS011;2929;50.810;8.342;2022-12-20T15:13:25;96.53;;;40.20;;
5805;SDS011;2929;50.810;8.342;2022-12-20T15:15:56;103.10;;;42.43;;
5805;SDS011;2929;50.810;8.342;2022-12-20T15:18:24;110.60;;;47.07;;
5805;SDS011;2929;50.810;8.342;2022-12-20T15:20:54;113.77;;;49.47;;
5805;SDS011;2929;50.810;8.342;2022-12-20T15:23:28;127.10;;;50.30;;
5805;SDS011;2929;50.810;8.342;2022-12-20T15:25:55;129.47;;;56.20;;
5805;SDS011;2929;50.810;8.342;2022-12-20T15:28:25;121.90;;;53.10;;
5805;SDS011;2929;50.810;8.342;2022-12-20T15:30:52;113.60;;;47.67;;
5805;SDS011;2929;50.810;8.342;2022-12-20T15:33:21;119.97;;;45.67;;
5805;SDS011;2929;50.810;8.342;2022-12-20T15:35:50;98.27;;;39.33;;
5805;SDS011;2929;50.810;8.342;2022-12-20T15:38:19;101.23;;;42.53;;
5805;SDS011;2929;50.810;8.342;2022-12-20T15:40:49;110.07;;;41.50;;
5805;SDS011;2929;50.810;8.342;2022-12-20T15:43:19;90.53;;;38.70;;
5805;SDS011;2929;50.810;8.342;2022-12-20T15:45:49;143.87;;;53.30;;
5805;SDS011;2929;50.810;8.342;2022-12-20T15:48:19;135.37;;;49.07;;
5805;SDS011;2929;50.810;8.342;2022-12-20T15:50:48;106.87;;;46.80;;
5805;SDS011;2929;50.810;8.342;2022-12-20T15:53:18;109.60;;;45.90;;